sensor_id;sensor_type;location;lat;lon;timestamp;P1;durP1;ratioP1;P2;durP2;ratioP2
13801;SDS011;6972;51.518;6.918;2022-10-17T00:01:04;7.72;;;6.07;;
13801;SDS011;6972;51.518;6.918;2022-10-17T00:03:30;8.73;;;6.57;;
13801;SDS011;6972;51.518;6.918;2022-10-17T00:05:56;9.88;;;6.07;;
13801;SDS011;6972;51.518;6.918;2022-10-17T00:08:22;7.88;;;6.15;;
13801;SDS011;6972;51.518;6.918;2022-10-17T00:10:55;12.00;;;6.75;;
13801;SDS011;6972;51.518;6.918;2022-10-17T00:13:23;8.20;;;6.05;;
13801;SDS011;6972;51.518;6.918;2022-10-17T00:15:50;7.15;;;5.80;;
13801;SDS011;6972;51.518;6.918;2022-10-17T00:18:15;7.97;;;5.72;;
13801;SDS011;6972;51.518;6.918;2022-10-17T00:20:41;14.02;;;6.30;;
13801;SDS011;6972;51.518;6.918;2022-10-17T00:23:07;7.18;;;5.20;;
13801;SDS011;6972;51.518;6.918;2022-10-17T00:25:33;8.75;;;6.05;;
13801;SDS011;6972;51.518;6.918;2022-10-17T00:27:59;9.98;;;6.20;;
13801;SDS011;6972;51.518;6.918;2022-10-17T00:30:28;9.35;;;6.43;;
13801;SDS011;6972;51.518;6.918;2022-10-17T00:32:54;9.93;;;6.38;;
13801;SDS011;6972;51.518;6.918;2022-10-17T00:35:20;6.47;;;5.70;;
13801;SDS011;6972;51.518;6.918;2022-10-17T00:37:45;9.57;;;6.40;;
13801;SDS011;6972;51.518;6.918;2022-10-17T00:40:11;7.15;;;5.68;;
13801;SDS011;6972;51.518;6.918;2022-10-17T00:42:37;9.63;;;6.28;;
13801;SDS011;6972;51.518;6.918;2022-10-17T00:45:09;7.63;;;5.93;;
13801;SDS011;6972;51.518;6.918;2022-10-17T00:47:44;10.25;;;6.43;;
13801;SDS011;6972;51.518;6.918;2022-10-17T00:50:12;14.40;;;6.57;;
13801;SDS011;6972;51.518;6.918;2022-10-17T00:52:39;13.55;;;6.82;;
13801;SDS011;6972;51.518;6.918;2022-10-17T00:57:55;12.02;;;6.95;;
13801;SDS011;6972;51.518;6.918;2022-10-17T01:00:22;16.48;;;7.32;;
13801;SDS011;6972;51.518;6.918;2022-10-17T01:02:48;8.98;;;6.40;;
13801;SDS011;6972;51.518;6.918;2022-10-17T01:05:14;8.75;;;7.03;;
13801;SDS011;6972;51.518;6.918;2022-10-17T01:07:44;10.75;;;6.78;;
13801;SDS011;6972;51.518;6.918;2022-10-17T01:10:12;10.45;;;7.03;;
13801;SDS011;6972;51.518;6.918;2022-10-17T01:23:05;10.35;;;6.75;;
13801;SDS011;6972;51.518;6.918;2022-10-17T01:25:56;8.30;;;6.40;;
13801;SDS011;6972;51.518;6.918;2022-10-17T01:37:01;6.50;;;5.90;;
13801;SDS011;6972;51.518;6.918;2022-10-17T01:39:58;9.38;;;5.90;;
13801;SDS011;6972;51.518;6.918;2022-10-17T01:47:45;10.65;;;5.32;;
13801;SDS011;6972;51.518;6.918;2022-10-17T01:50:14;8.23;;;5.80;;
13801;SDS011;6972;51.518;6.918;2022-10-17T01:52:46;8.77;;;5.75;;
13801;SDS011;6972;51.518;6.918;2022-10-17T01:55:17;12.65;;;5.90;;
13801;SDS011;6972;51.518;6.918;2022-10-17T01:57:50;8.23;;;5.60;;
13801;SDS011;6972;51.518;6.918;2022-10-17T02:00:21;16.65;;;6.25;;
13801;SDS011;6972;51.518;6.918;2022-10-17T02:02:59;9.77;;;5.90;;
13801;SDS011;6972;51.518;6.918;2022-10-17T02:05:30;9.57;;;5.93;;
13801;SDS011;6972;51.518;6.918;2022-10-17T02:07:57;7.35;;;5.72;;
13801;SDS011;6972;51.518;6.918;2022-10-17T02:10:43;8.57;;;5.55;;
13801;SDS011;6972;51.518;6.918;2022-10-17T02:13:33;7.60;;;5.47;;
13801;SDS011;6972;51.518;6.918;2022-10-17T02:30:06;13.98;;;5.45;;
13801;SDS011;6972;51.518;6.918;2022-10-17T02:32:43;9.35;;;5.80;;
13801;SDS011;6972;51.518;6.918;2022-10-17T02:35:26;12.30;;;5.88;;
13801;SDS011;6972;51.518;6.918;2022-10-17T02:37:57;7.75;;;5.43;;
13801;SDS011;6972;51.518;6.918;2022-10-17T02:40:24;12.95;;;5.55;;
13801;SDS011;6972;51.518;6.918;2022-10-17T02:42:53;11.35;;;5.85;;
13801;SDS011;6972;51.518;6.918;2022-10-17T02:45:19;8.48;;;5.78;;
13801;SDS011;6972;51.518;6.918;2022-10-17T02:47:59;8.57;;;5.32;;
13801;SDS011;6972;51.518;6.918;2022-10-17T02:50:32;9.02;;;5.65;;
13801;SDS011;6972;51.518;6.918;2022-10-17T02:53:24;12.10;;;5.72;;
13801;SDS011;6972;51.518;6.918;2022-10-17T02:55:57;8.00;;;5.63;;
13801;SDS011;6972;51.518;6.918;2022-10-17T02:58:32;12.07;;;5.80;;
13801;SDS011;6972;51.518;6.918;2022-10-17T03:01:00;12.80;;;5.25;;
13801;SDS011;6972;51.518;6.918;2022-10-17T03:03:27;13.13;;;6.18;;
13801;SDS011;6972;51.518;6.918;2022-10-17T03:05:54;6.88;;;5.43;;
13801;SDS011;6972;51.518;6.918;2022-10-17T03:08:20;12.00;;;5.60;;
13801;SDS011;6972;51.518;6.918;2022-10-17T03:10:46;12.48;;;6.25;;
13801;SDS011;6972;51.518;6.918;2022-10-17T03:13:12;8.02;;;5.22;;
13801;SDS011;6972;51.518;6.918;2022-10-17T03:15:38;10.82;;;5.60;;
13801;SDS011;6972;51.518;6.918;2022-10-17T03:18:03;7.90;;;5.07;;
13801;SDS011;6972;51.518;6.918;2022-10-17T03:20:29;7.03;;;4.68;;
13801;SDS011;6972;51.518;6.918;2022-10-17T03:22:55;8.35;;;5.25;;
13801;SDS011;6972;51.518;6.918;2022-10-17T03:25:21;9.88;;;5.60;;
13801;SDS011;6972;51.518;6.918;2022-10-17T03:27:47;6.80;;;5.35;;
13801;SDS011;6972;51.518;6.918;2022-10-17T03:30:13;7.90;;;5.47;;
13801;SDS011;6972;51.518;6.918;2022-10-17T03:32:42;6.88;;;5.20;;
13801;SDS011;6972;51.518;6.918;2022-10-17T03:35:07;8.52;;;5.25;;
13801;SDS011;6972;51.518;6.918;2022-10-17T03:37:33;7.63;;;5.47;;
13801;SDS011;6972;51.518;6.918;2022-10-17T03:39:59;12.55;;;5.00;;
13801;SDS011;6972;51.518;6.918;2022-10-17T03:42:25;8.43;;;5.28;;
13801;SDS011;6972;51.518;6.918;2022-10-17T03:44:51;9.05;;;5.22;;
13801;SDS011;6972;51.518;6.918;2022-10-17T03:47:17;6.70;;;5.13;;
13801;SDS011;6972;51.518;6.918;2022-10-17T03:49:43;9.52;;;4.90;;
13801;SDS011;6972;51.518;6.918;2022-10-17T03:52:12;11.13;;;4.68;;
13801;SDS011;6972;51.518;6.918;2022-10-17T03:54:38;13.35;;;4.80;;
13801;SDS011;6972;51.518;6.918;2022-10-17T03:57:04;12.98;;;4.70;;
13801;SDS011;6972;51.518;6.918;2022-10-17T03:59:30;10.13;;;5.10;;
13801;SDS011;6972;51.518;6.918;2022-10-17T04:01:56;9.80;;;4.90;;
13801;SDS011;6972;51.518;6.918;2022-10-17T04:04:22;10.63;;;4.80;;
13801;SDS011;6972;51.518;6.918;2022-10-17T04:06:48;7.45;;;4.40;;
13801;SDS011;6972;51.518;6.918;2022-10-17T04:09:13;6.35;;;4.47;;
13801;SDS011;6972;51.518;6.918;2022-10-17T04:11:39;8.50;;;4.90;;
13801;SDS011;6972;51.518;6.918;2022-10-17T04:14:05;12.10;;;4.63;;
13801;SDS011;6972;51.518;6.918;2022-10-17T04:16:31;8.43;;;4.80;;
13801;SDS011;6972;51.518;6.918;2022-10-17T04:18:58;8.07;;;5.03;;
13801;SDS011;6972;51.518;6.918;2022-10-17T04:21:24;9.70;;;4.47;;
13801;SDS011;6972;51.518;6.918;2022-10-17T04:23:52;6.97;;;4.47;;
13801;SDS011;6972;51.518;6.918;2022-10-17T04:26:18;9.15;;;4.82;;
13801;SDS011;6972;51.518;6.918;2022-10-17T04:28:44;5.97;;;4.68;;
13801;SDS011;6972;51.518;6.918;2022-10-17T04:31:11;7.10;;;4.72;;
13801;SDS011;6972;51.518;6.918;2022-10-17T04:33:38;15.60;;;5.07;;
13801;SDS011;6972;51.518;6.918;2022-10-17T04:36:05;6.70;;;4.55;;
13801;SDS011;6972;51.518;6.918;2022-10-17T04:38:34;6.13;;;4.47;;
13801;SDS011;6972;51.518;6.918;2022-10-17T04:41:00;9.73;;;5.10;;
13801;SDS011;6972;51.518;6.918;2022-10-17T04:43:27;8.30;;;4.40;;
13801;SDS011;6972;51.518;6.918;2022-10-17T04:45:58;8.35;;;5.00;;
13801;SDS011;6972;51.518;6.918;2022-10-17T04:48:24;7.07;;;4.10;;
13801;SDS011;6972;51.518;6.918;2022-10-17T04:50:57;9.07;;;4.90;;
13801;SDS011;6972;51.518;6.918;2022-10-17T04:53:27;9.77;;;4.50;;
13801;SDS011;6972;51.518;6.918;2022-10-17T04:55:55;7.43;;;4.72;;
13801;SDS011;6972;51.518;6.918;2022-10-17T04:58:21;8.27;;;4.50;;
13801;SDS011;6972;51.518;6.918;2022-10-17T05:00:47;7.32;;;4.45;;
13801;SDS011;6972;51.518;6.918;2022-10-17T05:03:13;6.72;;;4.43;;
13801;SDS011;6972;51.518;6.918;2022-10-17T05:05:40;7.47;;;4.28;;
13801;SDS011;6972;51.518;6.918;2022-10-17T05:08:06;7.85;;;4.20;;
13801;SDS011;6972;51.518;6.918;2022-10-17T05:10:37;10.73;;;4.53;;
13801;SDS011;6972;51.518;6.918;2022-10-17T05:13:04;12.32;;;5.32;;
13801;SDS011;6972;51.518;6.918;2022-10-17T05:15:30;11.85;;;4.28;;
13801;SDS011;6972;51.518;6.918;2022-10-17T05:17:56;10.13;;;4.18;;
13801;SDS011;6972;51.518;6.918;2022-10-17T05:20:22;9.32;;;4.18;;
13801;SDS011;6972;51.518;6.918;2022-10-17T05:22:49;7.95;;;4.32;;
13801;SDS011;6972;51.518;6.918;2022-10-17T05:25:14;11.80;;;4.07;;
13801;SDS011;6972;51.518;6.918;2022-10-17T05:27:40;7.22;;;4.45;;
13801;SDS011;6972;51.518;6.918;2022-10-17T05:30:07;7.97;;;4.00;;
13801;SDS011;6972;51.518;6.918;2022-10-17T05:32:33;7.25;;;4.65;;
13801;SDS011;6972;51.518;6.918;2022-10-17T05:34:59;8.02;;;4.20;;
13801;SDS011;6972;51.518;6.918;2022-10-17T05:37:25;9.63;;;3.92;;
13801;SDS011;6972;51.518;6.918;2022-10-17T05:39:51;8.27;;;4.07;;
13801;SDS011;6972;51.518;6.918;2022-10-17T05:42:17;7.32;;;3.95;;
13801;SDS011;6972;51.518;6.918;2022-10-17T05:44:43;12.02;;;4.28;;
13801;SDS011;6972;51.518;6.918;2022-10-17T05:47:09;8.02;;;3.95;;
13801;SDS011;6972;51.518;6.918;2022-10-17T05:49:35;11.77;;;3.85;;
13801;SDS011;6972;51.518;6.918;2022-10-17T05:52:01;8.73;;;4.35;;
13801;SDS011;6972;51.518;6.918;2022-10-17T05:54:27;8.27;;;4.22;;
13801;SDS011;6972;51.518;6.918;2022-10-17T05:56:53;11.77;;;4.03;;
13801;SDS011;6972;51.518;6.918;2022-10-17T05:59:20;12.32;;;3.65;;
13801;SDS011;6972;51.518;6.918;2022-10-17T06:01:46;6.90;;;3.83;;
13801;SDS011;6972;51.518;6.918;2022-10-17T06:04:12;9.30;;;4.47;;
13801;SDS011;6972;51.518;6.918;2022-10-17T06:06:38;6.70;;;4.38;;
13801;SDS011;6972;51.518;6.918;2022-10-17T06:09:04;9.48;;;4.30;;
13801;SDS011;6972;51.518;6.918;2022-10-17T06:11:32;9.98;;;4.03;;
13801;SDS011;6972;51.518;6.918;2022-10-17T06:13:58;4.45;;;4.00;;
13801;SDS011;6972;51.518;6.918;2022-10-17T06:16:25;10.82;;;4.43;;
13801;SDS011;6972;51.518;6.918;2022-10-17T06:18:51;8.95;;;4.10;;
13801;SDS011;6972;51.518;6.918;2022-10-17T06:21:18;7.75;;;3.85;;
13801;SDS011;6972;51.518;6.918;2022-10-17T06:23:47;6.88;;;3.80;;
13801;SDS011;6972;51.518;6.918;2022-10-17T06:26:13;11.93;;;4.00;;
13801;SDS011;6972;51.518;6.918;2022-10-17T06:28:39;12.82;;;4.15;;
13801;SDS011;6972;51.518;6.918;2022-10-17T06:31:06;12.43;;;4.55;;
13801;SDS011;6972;51.518;6.918;2022-10-17T06:33:33;4.75;;;3.60;;
13801;SDS011;6972;51.518;6.918;2022-10-17T06:35:59;6.72;;;3.85;;
13801;SDS011;6972;51.518;6.918;2022-10-17T06:38:25;9.05;;;4.38;;
13801;SDS011;6972;51.518;6.918;2022-10-17T06:40:51;6.80;;;3.75;;
13801;SDS011;6972;51.518;6.918;2022-10-17T06:43:18;11.73;;;4.35;;
13801;SDS011;6972;51.518;6.918;2022-10-17T06:45:45;7.45;;;3.78;;
13801;SDS011;6972;51.518;6.918;2022-10-17T06:48:11;6.68;;;3.65;;
13801;SDS011;6972;51.518;6.918;2022-10-17T06:50:37;6.57;;;3.92;;
13801;SDS011;6972;51.518;6.918;2022-10-17T06:53:03;7.13;;;4.18;;
13801;SDS011;6972;51.518;6.918;2022-10-17T06:55:30;5.13;;;3.25;;
13801;SDS011;6972;51.518;6.918;2022-10-17T06:57:56;11.18;;;4.07;;
13801;SDS011;6972;51.518;6.918;2022-10-17T07:00:22;4.50;;;3.10;;
13801;SDS011;6972;51.518;6.918;2022-10-17T07:02:51;3.40;;;3.10;;
13801;SDS011;6972;51.518;6.918;2022-10-17T07:05:16;7.53;;;3.33;;
13801;SDS011;6972;51.518;6.918;2022-10-17T07:07:43;6.72;;;3.33;;
13801;SDS011;6972;51.518;6.918;2022-10-17T07:10:09;7.22;;;3.50;;
13801;SDS011;6972;51.518;6.918;2022-10-17T07:12:35;9.63;;;3.65;;
13801;SDS011;6972;51.518;6.918;2022-10-17T07:15:02;9.43;;;3.20;;
13801;SDS011;6972;51.518;6.918;2022-10-17T07:17:29;6.22;;;3.35;;
13801;SDS011;6972;51.518;6.918;2022-10-17T07:19:55;7.50;;;3.42;;
13801;SDS011;6972;51.518;6.918;2022-10-17T07:22:21;6.30;;;3.42;;
13801;SDS011;6972;51.518;6.918;2022-10-17T07:24:47;10.57;;;3.88;;
13801;SDS011;6972;51.518;6.918;2022-10-17T07:27:13;4.75;;;3.20;;
13801;SDS011;6972;51.518;6.918;2022-10-17T07:29:39;5.32;;;3.50;;
13801;SDS011;6972;51.518;6.918;2022-10-17T07:32:05;10.07;;;3.10;;
13801;SDS011;6972;51.518;6.918;2022-10-17T07:34:33;8.95;;;3.00;;
13801;SDS011;6972;51.518;6.918;2022-10-17T07:36:59;7.95;;;3.30;;
13801;SDS011;6972;51.518;6.918;2022-10-17T07:39:25;9.02;;;3.45;;
13801;SDS011;6972;51.518;6.918;2022-10-17T07:41:51;5.32;;;2.55;;
13801;SDS011;6972;51.518;6.918;2022-10-17T07:44:17;6.63;;;2.92;;
13801;SDS011;6972;51.518;6.918;2022-10-17T07:46:43;6.95;;;3.08;;
13801;SDS011;6972;51.518;6.918;2022-10-17T07:49:09;7.55;;;3.40;;
13801;SDS011;6972;51.518;6.918;2022-10-17T07:51:35;8.77;;;3.40;;
13801;SDS011;6972;51.518;6.918;2022-10-17T07:54:01;8.82;;;3.15;;
13801;SDS011;6972;51.518;6.918;2022-10-17T07:56:27;9.27;;;3.17;;
13801;SDS011;6972;51.518;6.918;2022-10-17T07:58:53;6.35;;;3.28;;
13801;SDS011;6972;51.518;6.918;2022-10-17T08:01:19;5.95;;;2.92;;
13801;SDS011;6972;51.518;6.918;2022-10-17T08:03:45;9.52;;;2.90;;
13801;SDS011;6972;51.518;6.918;2022-10-17T08:06:15;6.15;;;3.20;;
13801;SDS011;6972;51.518;6.918;2022-10-17T08:08:43;4.78;;;2.80;;
13801;SDS011;6972;51.518;6.918;2022-10-17T08:11:10;7.35;;;3.55;;
13801;SDS011;6972;51.518;6.918;2022-10-17T08:13:36;8.85;;;3.17;;
13801;SDS011;6972;51.518;6.918;2022-10-17T08:16:04;5.65;;;3.00;;
13801;SDS011;6972;51.518;6.918;2022-10-17T08:18:32;7.00;;;3.10;;
13801;SDS011;6972;51.518;6.918;2022-10-17T08:20:59;12.63;;;2.90;;
13801;SDS011;6972;51.518;6.918;2022-10-17T08:23:26;8.38;;;3.15;;
13801;SDS011;6972;51.518;6.918;2022-10-17T08:25:52;9.43;;;2.88;;
13801;SDS011;6972;51.518;6.918;2022-10-17T08:28:18;7.43;;;2.95;;
13801;SDS011;6972;51.518;6.918;2022-10-17T08:30:44;11.88;;;3.03;;
13801;SDS011;6972;51.518;6.918;2022-10-17T08:33:09;8.75;;;3.28;;
13801;SDS011;6972;51.518;6.918;2022-10-17T08:35:35;16.85;;;3.15;;
13801;SDS011;6972;51.518;6.918;2022-10-17T08:38:01;7.47;;;3.15;;
13801;SDS011;6972;51.518;6.918;2022-10-17T08:40:28;8.88;;;3.00;;
13801;SDS011;6972;51.518;6.918;2022-10-17T08:45:31;5.20;;;2.88;;
13801;SDS011;6972;51.518;6.918;2022-10-17T08:47:58;7.28;;;2.92;;
13801;SDS011;6972;51.518;6.918;2022-10-17T08:58:45;5.55;;;2.78;;
13801;SDS011;6972;51.518;6.918;2022-10-17T09:06:23;6.13;;;3.13;;
13801;SDS011;6972;51.518;6.918;2022-10-17T09:12:01;9.55;;;2.92;;
13801;SDS011;6972;51.518;6.918;2022-10-17T09:17:38;7.90;;;2.97;;
13801;SDS011;6972;51.518;6.918;2022-10-17T09:22:37;5.35;;;2.95;;
13801;SDS011;6972;51.518;6.918;2022-10-17T09:25:10;7.35;;;3.10;;
13801;SDS011;6972;51.518;6.918;2022-10-17T09:32:37;6.80;;;3.08;;
13801;SDS011;6972;51.518;6.918;2022-10-17T09:35:06;7.22;;;2.70;;
13801;SDS011;6972;51.518;6.918;2022-10-17T09:37:37;8.30;;;3.03;;
13801;SDS011;6972;51.518;6.918;2022-10-17T09:40:04;7.65;;;3.03;;
13801;SDS011;6972;51.518;6.918;2022-10-17T09:42:32;8.82;;;2.70;;
13801;SDS011;6972;51.518;6.918;2022-10-17T09:47:38;4.80;;;2.67;;
13801;SDS011;6972;51.518;6.918;2022-10-17T09:53:09;7.80;;;2.70;;
13801;SDS011;6972;51.518;6.918;2022-10-17T09:55:43;8.13;;;2.85;;
13801;SDS011;6972;51.518;6.918;2022-10-17T09:58:12;6.57;;;2.90;;
13801;SDS011;6972;51.518;6.918;2022-10-17T10:00:39;8.43;;;2.70;;
13801;SDS011;6972;51.518;6.918;2022-10-17T10:05:39;7.30;;;2.70;;
13801;SDS011;6972;51.518;6.918;2022-10-17T10:08:11;8.32;;;2.90;;
13801;SDS011;6972;51.518;6.918;2022-10-17T10:10:43;6.53;;;2.80;;
13801;SDS011;6972;51.518;6.918;2022-10-17T10:15:36;7.75;;;2.75;;
13801;SDS011;6972;51.518;6.918;2022-10-17T10:21:03;7.60;;;2.90;;
13801;SDS011;6972;51.518;6.918;2022-10-17T10:23:32;8.73;;;3.00;;
13801;SDS011;6972;51.518;6.918;2022-10-17T10:26:00;6.55;;;3.50;;
13801;SDS011;6972;51.518;6.918;2022-10-17T10:28:32;10.23;;;3.10;;
13801;SDS011;6972;51.518;6.918;2022-10-17T10:30:59;6.22;;;2.85;;
13801;SDS011;6972;51.518;6.918;2022-10-17T10:33:28;6.43;;;2.85;;
13801;SDS011;6972;51.518;6.918;2022-10-17T10:35:59;11.35;;;3.30;;
13801;SDS011;6972;51.518;6.918;2022-10-17T10:38:28;3.90;;;2.75;;
13801;SDS011;6972;51.518;6.918;2022-10-17T10:41:05;6.07;;;3.05;;
13801;SDS011;6972;51.518;6.918;2022-10-17T10:43:37;7.90;;;3.28;;
13801;SDS011;6972;51.518;6.918;2022-10-17T10:46:27;7.53;;;3.33;;
13801;SDS011;6972;51.518;6.918;2022-10-17T10:51:22;16.00;;;3.67;;
13801;SDS011;6972;51.518;6.918;2022-10-17T10:54:18;5.50;;;2.90;;
13801;SDS011;6972;51.518;6.918;2022-10-17T10:56:53;9.52;;;3.25;;
13801;SDS011;6972;51.518;6.918;2022-10-17T10:59:47;6.65;;;3.30;;
13801;SDS011;6972;51.518;6.918;2022-10-17T11:02:26;7.20;;;3.13;;
13801;SDS011;6972;51.518;6.918;2022-10-17T11:08:06;5.38;;;3.40;;
13801;SDS011;6972;51.518;6.918;2022-10-17T11:13:24;9.60;;;3.50;;
13801;SDS011;6972;51.518;6.918;2022-10-17T11:15:58;9.55;;;3.40;;
13801;SDS011;6972;51.518;6.918;2022-10-17T11:18:33;8.02;;;2.78;;
13801;SDS011;6972;51.518;6.918;2022-10-17T11:21:31;10.55;;;3.80;;
13801;SDS011;6972;51.518;6.918;2022-10-17T11:24:20;8.90;;;3.10;;
13801;SDS011;6972;51.518;6.918;2022-10-17T11:26:57;7.80;;;3.50;;
13801;SDS011;6972;51.518;6.918;2022-10-17T11:29:27;9.50;;;3.60;;
13801;SDS011;6972;51.518;6.918;2022-10-17T11:31:55;14.65;;;3.47;;
13801;SDS011;6972;51.518;6.918;2022-10-17T11:34:26;10.23;;;3.45;;
13801;SDS011;6972;51.518;6.918;2022-10-17T11:37:05;8.93;;;3.47;;
13801;SDS011;6972;51.518;6.918;2022-10-17T11:39:53;6.13;;;3.30;;
13801;SDS011;6972;51.518;6.918;2022-10-17T11:42:27;8.18;;;3.80;;
13801;SDS011;6972;51.518;6.918;2022-10-17T11:45:14;13.80;;;3.65;;
13801;SDS011;6972;51.518;6.918;2022-10-17T11:47:44;10.52;;;3.28;;
13801;SDS011;6972;51.518;6.918;2022-10-17T11:52:49;9.48;;;3.63;;
13801;SDS011;6972;51.518;6.918;2022-10-17T11:58:31;10.63;;;3.65;;
13801;SDS011;6972;51.518;6.918;2022-10-17T12:11:54;11.68;;;3.33;;
13801;SDS011;6972;51.518;6.918;2022-10-17T12:17:27;7.53;;;3.17;;
13801;SDS011;6972;51.518;6.918;2022-10-17T12:22:55;8.93;;;3.15;;
13801;SDS011;6972;51.518;6.918;2022-10-17T12:25:50;6.93;;;3.40;;
13801;SDS011;6972;51.518;6.918;2022-10-17T12:33:34;10.00;;;3.20;;
13801;SDS011;6972;51.518;6.918;2022-10-17T12:46:43;6.93;;;3.38;;
13801;SDS011;6972;51.518;6.918;2022-10-17T12:49:38;6.63;;;3.50;;
13801;SDS011;6972;51.518;6.918;2022-10-17T12:57:34;8.63;;;3.63;;
13801;SDS011;6972;51.518;6.918;2022-10-17T13:00:34;10.82;;;4.30;;
13801;SDS011;6972;51.518;6.918;2022-10-17T13:03:10;6.28;;;3.78;;
13801;SDS011;6972;51.518;6.918;2022-10-17T13:05:40;12.63;;;3.85;;
13801;SDS011;6972;51.518;6.918;2022-10-17T13:08:29;8.27;;;3.72;;
13801;SDS011;6972;51.518;6.918;2022-10-17T13:10:57;9.43;;;4.15;;
13801;SDS011;6972;51.518;6.918;2022-10-17T13:13:46;9.15;;;4.00;;
13801;SDS011;6972;51.518;6.918;2022-10-17T13:19:03;10.65;;;4.50;;
13801;SDS011;6972;51.518;6.918;2022-10-17T13:21:36;19.10;;;4.10;;
13801;SDS011;6972;51.518;6.918;2022-10-17T13:24:18;8.70;;;4.28;;
13801;SDS011;6972;51.518;6.918;2022-10-17T13:26:45;11.75;;;4.07;;
13801;SDS011;6972;51.518;6.918;2022-10-17T13:29:12;12.27;;;4.35;;
13801;SDS011;6972;51.518;6.918;2022-10-17T13:31:40;7.13;;;3.80;;
13801;SDS011;6972;51.518;6.918;2022-10-17T13:34:40;10.82;;;4.63;;
13801;SDS011;6972;51.518;6.918;2022-10-17T13:37:00;8.98;;;4.00;;
13801;SDS011;6972;51.518;6.918;2022-10-17T13:39:28;9.95;;;3.90;;
13801;SDS011;6972;51.518;6.918;2022-10-17T13:41:59;7.82;;;3.97;;
13801;SDS011;6972;51.518;6.918;2022-10-17T13:44:27;9.18;;;3.63;;
13801;SDS011;6972;51.518;6.918;2022-10-17T13:46:56;11.77;;;4.38;;
13801;SDS011;6972;51.518;6.918;2022-10-17T13:51:59;16.83;;;4.05;;
13801;SDS011;6972;51.518;6.918;2022-10-17T13:54:34;12.05;;;4.00;;
13801;SDS011;6972;51.518;6.918;2022-10-17T13:57:01;17.00;;;4.72;;
13801;SDS011;6972;51.518;6.918;2022-10-17T13:59:38;13.02;;;4.10;;
13801;SDS011;6972;51.518;6.918;2022-10-17T14:02:08;13.02;;;3.65;;
13801;SDS011;6972;51.518;6.918;2022-10-17T14:04:39;10.27;;;4.20;;
13801;SDS011;6972;51.518;6.918;2022-10-17T14:07:05;6.47;;;3.92;;
13801;SDS011;6972;51.518;6.918;2022-10-17T14:09:31;7.72;;;3.42;;
13801;SDS011;6972;51.518;6.918;2022-10-17T14:12:08;11.38;;;3.50;;
13801;SDS011;6972;51.518;6.918;2022-10-17T14:14:36;10.88;;;3.85;;
13801;SDS011;6972;51.518;6.918;2022-10-17T14:19:53;12.43;;;3.60;;
13801;SDS011;6972;51.518;6.918;2022-10-17T14:24:48;11.43;;;3.50;;
13801;SDS011;6972;51.518;6.918;2022-10-17T14:30:04;12.98;;;3.67;;
13801;SDS011;6972;51.518;6.918;2022-10-17T14:32:32;10.82;;;3.97;;
13801;SDS011;6972;51.518;6.918;2022-10-17T14:35:00;10.07;;;3.20;;
13801;SDS011;6972;51.518;6.918;2022-10-17T14:37:31;10.75;;;3.63;;
13801;SDS011;6972;51.518;6.918;2022-10-17T14:40:14;12.85;;;3.50;;
13801;SDS011;6972;51.518;6.918;2022-10-17T14:42:50;11.52;;;3.05;;
13801;SDS011;6972;51.518;6.918;2022-10-17T14:45:22;5.35;;;3.58;;
13801;SDS011;6972;51.518;6.918;2022-10-17T14:47:49;8.57;;;3.15;;
13801;SDS011;6972;51.518;6.918;2022-10-17T14:50:21;12.15;;;3.20;;
13801;SDS011;6972;51.518;6.918;2022-10-17T14:52:58;10.30;;;3.55;;
13801;SDS011;6972;51.518;6.918;2022-10-17T14:55:25;8.50;;;3.28;;
13801;SDS011;6972;51.518;6.918;2022-10-17T14:57:53;9.38;;;3.53;;
13801;SDS011;6972;51.518;6.918;2022-10-17T15:00:20;13.38;;;3.20;;
13801;SDS011;6972;51.518;6.918;2022-10-17T15:02:48;10.32;;;3.53;;
13801;SDS011;6972;51.518;6.918;2022-10-17T15:05:18;13.95;;;3.40;;
13801;SDS011;6972;51.518;6.918;2022-10-17T15:07:44;8.50;;;3.33;;
13801;SDS011;6972;51.518;6.918;2022-10-17T15:10:19;8.98;;;3.55;;
13801;SDS011;6972;51.518;6.918;2022-10-17T15:12:50;6.43;;;3.05;;
13801;SDS011;6972;51.518;6.918;2022-10-17T15:15:16;7.93;;;3.28;;
13801;SDS011;6972;51.518;6.918;2022-10-17T15:17:42;7.63;;;3.40;;
13801;SDS011;6972;51.518;6.918;2022-10-17T15:20:12;9.35;;;3.58;;
13801;SDS011;6972;51.518;6.918;2022-10-17T15:22:41;10.50;;;3.42;;
13801;SDS011;6972;51.518;6.918;2022-10-17T15:25:07;11.40;;;3.80;;
13801;SDS011;6972;51.518;6.918;2022-10-17T15:27:33;10.13;;;3.60;;
13801;SDS011;6972;51.518;6.918;2022-10-17T15:29:59;8.50;;;3.50;;
13801;SDS011;6972;51.518;6.918;2022-10-17T15:32:25;9.25;;;3.60;;
13801;SDS011;6972;51.518;6.918;2022-10-17T15:34:51;6.15;;;3.72;;
13801;SDS011;6972;51.518;6.918;2022-10-17T15:37:18;10.15;;;4.00;;
13801;SDS011;6972;51.518;6.918;2022-10-17T15:39:50;13.15;;;3.92;;
13801;SDS011;6972;51.518;6.918;2022-10-17T15:42:21;12.68;;;3.83;;
13801;SDS011;6972;51.518;6.918;2022-10-17T15:44:51;7.30;;;3.63;;
13801;SDS011;6972;51.518;6.918;2022-10-17T15:47:24;10.50;;;3.78;;
13801;SDS011;6972;51.518;6.918;2022-10-17T15:49:53;6.55;;;3.92;;
13801;SDS011;6972;51.518;6.918;2022-10-17T15:52:19;8.60;;;4.30;;
13801;SDS011;6972;51.518;6.918;2022-10-17T15:54:45;10.43;;;4.30;;
13801;SDS011;6972;51.518;6.918;2022-10-17T15:57:14;9.98;;;3.97;;
13801;SDS011;6972;51.518;6.918;2022-10-17T16:00:09;7.88;;;3.80;;
13801;SDS011;6972;51.518;6.918;2022-10-17T16:02:44;10.60;;;3.95;;
13801;SDS011;6972;51.518;6.918;2022-10-17T16:05:20;10.50;;;3.65;;
13801;SDS011;6972;51.518;6.918;2022-10-17T16:07:49;8.38;;;3.55;;
13801;SDS011;6972;51.518;6.918;2022-10-17T16:10:19;10.82;;;3.75;;
13801;SDS011;6972;51.518;6.918;2022-10-17T16:12:45;8.05;;;4.45;;
13801;SDS011;6972;51.518;6.918;2022-10-17T16:15:14;6.95;;;3.72;;
13801;SDS011;6972;51.518;6.918;2022-10-17T16:17:52;9.07;;;4.25;;
13801;SDS011;6972;51.518;6.918;2022-10-17T16:20:19;14.60;;;4.63;;
13801;SDS011;6972;51.518;6.918;2022-10-17T16:22:45;10.10;;;4.45;;
13801;SDS011;6972;51.518;6.918;2022-10-17T16:25:27;10.63;;;3.78;;
13801;SDS011;6972;51.518;6.918;2022-10-17T16:27:54;8.18;;;4.20;;
13801;SDS011;6972;51.518;6.918;2022-10-17T16:30:21;10.10;;;4.25;;
13801;SDS011;6972;51.518;6.918;2022-10-17T16:32:52;10.18;;;4.13;;
13801;SDS011;6972;51.518;6.918;2022-10-17T16:35:23;8.15;;;3.75;;
13801;SDS011;6972;51.518;6.918;2022-10-17T16:37:50;7.00;;;4.05;;
13801;SDS011;6972;51.518;6.918;2022-10-17T16:40:17;7.72;;;3.88;;
13801;SDS011;6972;51.518;6.918;2022-10-17T16:42:43;9.98;;;3.95;;
13801;SDS011;6972;51.518;6.918;2022-10-17T16:45:14;9.20;;;3.58;;
13801;SDS011;6972;51.518;6.918;2022-10-17T16:47:42;6.35;;;4.00;;
13801;SDS011;6972;51.518;6.918;2022-10-17T16:50:08;6.95;;;3.58;;
13801;SDS011;6972;51.518;6.918;2022-10-17T16:52:34;9.45;;;3.72;;
13801;SDS011;6972;51.518;6.918;2022-10-17T16:54:59;9.75;;;4.18;;
13801;SDS011;6972;51.518;6.918;2022-10-17T16:57:25;9.32;;;3.33;;
13801;SDS011;6972;51.518;6.918;2022-10-17T16:59:51;7.15;;;3.60;;
13801;SDS011;6972;51.518;6.918;2022-10-17T17:02:17;6.82;;;3.15;;
13801;SDS011;6972;51.518;6.918;2022-10-17T17:04:43;8.73;;;3.70;;
13801;SDS011;6972;51.518;6.918;2022-10-17T17:07:09;10.88;;;3.28;;
13801;SDS011;6972;51.518;6.918;2022-10-17T17:09:35;5.10;;;3.55;;
13801;SDS011;6972;51.518;6.918;2022-10-17T17:12:01;8.85;;;3.58;;
13801;SDS011;6972;51.518;6.918;2022-10-17T17:14:27;9.20;;;3.97;;
13801;SDS011;6972;51.518;6.918;2022-10-17T17:16:53;5.57;;;3.58;;
13801;SDS011;6972;51.518;6.918;2022-10-17T17:19:19;7.93;;;3.55;;
13801;SDS011;6972;51.518;6.918;2022-10-17T17:21:45;8.15;;;3.90;;
13801;SDS011;6972;51.518;6.918;2022-10-17T17:24:14;8.52;;;4.25;;
13801;SDS011;6972;51.518;6.918;2022-10-17T17:26:41;8.85;;;3.97;;
13801;SDS011;6972;51.518;6.918;2022-10-17T17:29:07;9.30;;;3.83;;
13801;SDS011;6972;51.518;6.918;2022-10-17T17:31:33;8.38;;;3.80;;
13801;SDS011;6972;51.518;6.918;2022-10-17T17:33:59;7.28;;;4.20;;
13801;SDS011;6972;51.518;6.918;2022-10-17T17:36:27;10.85;;;4.60;;
13801;SDS011;6972;51.518;6.918;2022-10-17T17:38:54;12.38;;;5.03;;
13801;SDS011;6972;51.518;6.918;2022-10-17T17:41:21;9.98;;;4.68;;